Marmon, North Dakota
Current Conditions -  °F | °C
As of 4:52 AM on Saturday 20 Dec 2014 (Local Time) from KISN Reporting Station
Broken Clouds Broken Clouds  
Wind Chill: 14°   Ceiling: 8000
Heat Index: 14°   Visibility: 9mi
Dew Point: 11°   Wind: 0mph
Humidity: 88%   Direction: NA
Pressure: 29.86"   Gusts: NA
Location:  48.5906°N, 103.667°W
Report Text: KISN 201052Z AUTO 00000KT 9SM BKN080 M10/M12 A2986 RMK AO2 SLP145 T11001117
Loading
Personal Weather Stations






























Interactive Weather Map New forecast layout! Learn more

10-Day Weather Forecast

Advertisements
Track Severe Weather on mobile